createdAt,value
2022-08-05T00:00:16.865Z,9.27
2022-08-05T00:02:50.846Z,8.17
2022-08-05T00:06:02.985Z,8.37
2022-08-05T00:08:19.990Z,11.27
2022-08-05T00:11:00.837Z,11.07
2022-08-05T00:13:39.299Z,7.27
2022-08-05T00:16:09.512Z,9.10
2022-08-05T00:18:41.144Z,9.67
2022-08-05T00:21:12.544Z,8.53
2022-08-05T00:23:53.731Z,9.23
2022-08-05T00:26:32.378Z,7.97
2022-08-05T00:29:00.532Z,7.93
2022-08-05T00:31:54.290Z,9.43
2022-08-05T00:34:55.494Z,12.43
2022-08-05T00:37:10.690Z,11.00
2022-08-05T00:39:44.386Z,7.53
2022-08-05T00:42:32.835Z,10.53
2022-08-05T00:45:01.278Z,7.93
2022-08-05T00:47:53.259Z,8.93
2022-08-05T00:50:17.582Z,9.60
2022-08-05T00:52:47.021Z,9.97
2022-08-05T00:55:15.147Z,10.37
2022-08-05T00:57:58.310Z,9.13
2022-08-05T01:00:27.800Z,9.93
2022-08-05T01:02:56.277Z,9.57
2022-08-05T01:05:24.363Z,9.60
2022-08-05T01:08:40.930Z,10.77
2022-08-05T01:10:51.488Z,11.17
2022-08-05T01:13:57.983Z,10.70
2022-08-05T01:16:26.208Z,9.40
2022-08-05T01:19:00.702Z,9.83
2022-08-05T01:21:58.222Z,9.13
2022-08-05T01:24:51.158Z,11.43
2022-08-05T01:27:32.856Z,10.77
2022-08-05T01:30:05.883Z,10.97
2022-08-05T01:32:48.260Z,9.87
2022-08-05T01:35:51.043Z,13.33
2022-08-05T01:38:08.579Z,7.13
2022-08-05T01:40:54.027Z,11.10
2022-08-05T01:43:24.148Z,9.53
2022-08-05T01:45:56.231Z,8.97
2022-08-05T01:48:26.102Z,17.00
2022-08-05T01:50:57.788Z,13.00
2022-08-05T01:53:57.643Z,12.43
2022-08-05T01:58:14.960Z,9.47
2022-08-05T01:59:22.788Z,8.13
2022-08-05T02:01:55.740Z,10.47
2022-08-05T02:04:30.003Z,13.67
2022-08-05T02:06:59.460Z,10.40
2022-08-05T02:09:28.050Z,12.57
2022-08-05T02:12:04.050Z,12.60
2022-08-05T02:14:35.319Z,9.83
2022-08-05T02:17:08.841Z,12.93
2022-08-05T02:19:50.063Z,9.13
2022-08-05T02:22:26.520Z,11.93
2022-08-05T02:25:00.074Z,11.37
2022-08-05T02:27:58.224Z,13.10
2022-08-05T02:30:19.187Z,8.73
2022-08-05T02:32:51.702Z,10.13
2022-08-05T02:35:28.345Z,12.10
2022-08-05T02:38:09.237Z,10.83
2022-08-05T02:40:38.639Z,12.50
2022-08-05T02:43:08.111Z,6.80
2022-08-05T02:45:51.905Z,9.17
2022-08-05T02:48:28.788Z,9.00
2022-08-05T02:50:59.686Z,7.90
2022-08-05T02:53:29.181Z,10.60
2022-08-05T02:56:09.517Z,13.87
2022-08-05T02:58:43.783Z,11.93
2022-08-05T03:01:15.815Z,8.93
2022-08-05T03:04:03.398Z,8.23
2022-08-05T03:06:54.060Z,8.53
2022-08-05T03:09:37.618Z,7.20
2022-08-05T03:12:08.326Z,9.67
2022-08-05T03:14:40.886Z,8.37
2022-08-05T03:17:14.457Z,8.20
2022-08-05T03:19:45.536Z,8.70
2022-08-05T03:22:16.482Z,6.07
2022-08-05T03:24:51.111Z,11.87
2022-08-05T03:27:21.238Z,11.80
2022-08-05T03:30:08.283Z,12.50
2022-08-05T03:32:37.680Z,8.70
2022-08-05T03:35:09.096Z,10.63
2022-08-05T03:37:46.185Z,11.37
2022-08-05T03:40:24.349Z,10.23
2022-08-05T03:42:59.176Z,8.33
2022-08-05T03:45:29.778Z,8.90
2022-08-05T03:48:22.006Z,12.80
2022-08-05T03:50:59.146Z,7.37
2022-08-05T03:55:51.764Z,10.73
2022-08-05T03:56:43.244Z,6.87
2022-08-05T03:59:20.327Z,12.07
2022-08-05T04:01:52.361Z,8.83
2022-08-05T04:04:22.407Z,9.07
2022-08-05T04:06:56.678Z,12.90
2022-08-05T04:09:26.337Z,11.50
2022-08-05T04:11:56.758Z,12.37
2022-08-05T04:14:30.646Z,10.40
2022-08-05T04:17:00.907Z,9.93
2022-08-05T04:19:31.606Z,10.30
2022-08-05T04:22:09.917Z,14.60
2022-08-05T04:24:44.134Z,10.57
2022-08-05T04:27:13.978Z,7.07
2022-08-05T04:29:43.800Z,14.33
2022-08-05T04:32:11.958Z,11.10
2022-08-05T04:34:42.868Z,8.97
2022-08-05T04:37:12.931Z,11.63
2022-08-05T04:39:41.262Z,10.00
2022-08-05T04:42:10.130Z,14.47
2022-08-05T04:44:39.059Z,9.00
2022-08-05T04:47:09.131Z,18.53
2022-08-05T04:50:01.658Z,9.90
2022-08-05T04:52:28.351Z,9.83
2022-08-05T04:54:57.873Z,12.10
2022-08-05T04:57:29.277Z,9.30
2022-08-05T05:00:06.514Z,9.57
2022-08-05T05:02:41.831Z,11.73
2022-08-05T05:05:25.925Z,9.87
2022-08-05T05:08:01.540Z,10.13
2022-08-05T05:10:30.360Z,12.27
2022-08-05T05:12:58.685Z,12.23
2022-08-05T05:15:57.561Z,10.80
2022-08-05T05:18:28.204Z,12.37
2022-08-05T05:20:59.425Z,10.23
2022-08-05T05:24:02.078Z,10.23
2022-08-05T05:26:18.094Z,14.30
2022-08-05T05:28:46.295Z,11.87
2022-08-05T05:31:14.358Z,10.60
2022-08-05T05:33:59.214Z,11.20
2022-08-05T05:36:28.746Z,9.40
2022-08-05T05:38:59.476Z,12.47
2022-08-05T05:41:40.327Z,9.97
2022-08-05T05:44:35.621Z,9.67
2022-08-05T05:46:58.340Z,10.57
2022-08-05T05:49:32.462Z,11.47
2022-08-05T05:52:07.220Z,9.30
2022-08-05T05:54:51.029Z,16.17
2022-08-05T05:57:20.313Z,12.07
2022-08-05T05:59:49.206Z,13.03
2022-08-05T06:02:32.337Z,11.47
2022-08-05T06:05:10.422Z,13.57
2022-08-05T06:08:01.282Z,11.50
2022-08-05T06:10:37.584Z,13.73
2022-08-05T06:13:19.479Z,13.50
2022-08-05T06:16:28.884Z,11.30
2022-08-05T06:18:39.365Z,12.67
2022-08-05T06:21:08.015Z,11.97
2022-08-05T06:23:46.792Z,10.47
2022-08-05T06:26:21.447Z,11.87
2022-08-05T06:28:52.252Z,14.73
2022-08-05T06:31:22.048Z,11.20
2022-08-05T06:34:07.530Z,10.07
2022-08-05T06:36:56.974Z,9.43
2022-08-05T06:39:27.661Z,10.90
2022-08-05T06:41:58.823Z,11.37
2022-08-05T06:44:27.883Z,8.77
2022-08-05T06:46:55.988Z,11.50
2022-08-05T06:50:00.789Z,9.77
2022-08-05T06:52:37.315Z,11.20
2022-08-05T06:55:02.458Z,9.33
2022-08-05T06:57:57.760Z,11.97
2022-08-05T07:00:22.193Z,9.20
2022-08-05T07:02:53.599Z,11.70
2022-08-05T07:05:36.869Z,13.67
2022-08-05T07:08:06.305Z,10.57
2022-08-05T07:10:52.601Z,12.20
2022-08-05T07:13:59.615Z,9.63
2022-08-05T07:17:57.152Z,9.07
2022-08-05T07:22:28.614Z,9.30
2022-08-05T07:24:59.326Z,7.23
2022-08-05T07:27:56.584Z,10.37
2022-08-05T07:30:24.008Z,9.20
2022-08-05T07:32:58.581Z,7.10
2022-08-05T07:36:03.870Z,9.93
2022-08-05T07:38:32.196Z,12.00
2022-08-05T07:42:09.070Z,9.03
2022-08-05T07:43:55.168Z,8.13
2022-08-05T07:46:26.668Z,8.90
2022-08-05T07:49:02.100Z,6.67
2022-08-05T07:51:48.461Z,6.97
2022-08-05T07:54:31.065Z,5.13
2022-08-05T07:57:16.905Z,6.80
2022-08-05T07:59:49.017Z,6.33
2022-08-05T08:02:18.659Z,6.97
2022-08-05T08:04:48.256Z,8.60
2022-08-05T08:07:22.657Z,8.53
2022-08-05T08:09:52.894Z,7.43
2022-08-05T08:12:35.259Z,6.53
2022-08-05T08:15:10.873Z,14.13
2022-08-05T08:17:46.172Z,5.23
2022-08-05T08:20:44.658Z,5.57
2022-08-05T08:23:59.985Z,3.97
2022-08-05T08:25:59.747Z,5.50
2022-08-05T08:28:36.510Z,5.00
2022-08-05T08:31:18.250Z,5.83
2022-08-05T08:33:51.700Z,3.83
2022-08-05T08:36:38.581Z,8.27
2022-08-05T08:39:15.605Z,4.40
2022-08-05T08:41:52.183Z,4.67
2022-08-05T08:45:16.264Z,5.73
2022-08-05T08:48:06.775Z,5.83
2022-08-05T08:50:31.766Z,4.57
2022-08-05T08:53:08.098Z,6.33
2022-08-05T08:56:02.630Z,2.67
2022-08-05T08:58:37.009Z,5.43
2022-08-05T09:01:16.431Z,10.37
2022-08-05T09:03:47.649Z,5.20
2022-08-05T09:06:21.029Z,3.27
2022-08-05T09:08:52.051Z,5.63
2022-08-05T09:11:51.155Z,2.93
2022-08-05T09:14:54.425Z,5.23
2022-08-05T09:16:57.742Z,3.27
2022-08-05T09:19:28.022Z,4.03
2022-08-05T09:22:22.505Z,6.83
2022-08-05T09:25:01.090Z,5.97
2022-08-05T09:28:05.388Z,5.60
2022-08-05T09:30:23.727Z,5.60
2022-08-05T09:32:52.982Z,2.80
2022-08-05T09:35:27.180Z,4.03
2022-08-05T09:38:13.054Z,5.60
2022-08-05T09:40:52.393Z,5.17
2022-08-05T09:43:40.791Z,5.87
2022-08-05T09:46:27.480Z,2.90
2022-08-05T09:49:07.077Z,3.27
2022-08-05T09:51:48.810Z,2.60
2022-08-05T09:54:32.030Z,3.23
2022-08-05T09:57:01.747Z,6.07
2022-08-05T09:59:34.893Z,5.43
2022-08-05T10:02:07.129Z,4.97
2022-08-05T10:04:41.069Z,4.93
2022-08-05T10:07:20.202Z,4.07
2022-08-05T10:10:14.238Z,5.00
2022-08-05T11:08:33.911Z,1.30
2022-08-05T11:11:52.240Z,1.40
2022-08-05T11:14:49.361Z,3.13
2022-08-05T11:17:58.205Z,1.77
2022-08-05T11:20:37.575Z,4.90
2022-08-05T11:23:33.321Z,1.60
2022-08-05T11:26:28.583Z,3.47
2022-08-05T11:29:06.561Z,5.10
2022-08-05T11:31:54.468Z,3.63
2022-08-05T11:34:38.737Z,2.83
2022-08-05T11:38:28.305Z,4.70
2022-08-05T11:40:03.249Z,2.00
2022-08-05T11:42:37.768Z,1.97
2022-08-05T11:45:23.267Z,2.93
2022-08-05T11:48:00.028Z,2.07
2022-08-05T11:50:29.176Z,4.00
2022-08-05T11:52:58.300Z,1.70
2022-08-05T11:55:32.090Z,2.97
2022-08-05T11:58:10.566Z,3.97
2022-08-05T12:00:44.402Z,4.03
2022-08-05T12:03:29.412Z,2.33
2022-08-05T12:06:02.158Z,3.03
2022-08-05T12:08:32.769Z,2.93
2022-08-05T12:11:05.968Z,2.17
2022-08-05T12:13:48.678Z,1.77
2022-08-05T12:16:25.400Z,3.47
2022-08-05T12:18:54.617Z,1.20
2022-08-05T12:21:26.840Z,2.93
2022-08-05T12:24:04.603Z,2.00
2022-08-05T12:26:34.198Z,1.30
2022-08-05T12:29:03.229Z,2.40
2022-08-05T12:31:45.919Z,3.57
2022-08-05T12:34:21.331Z,2.00
2022-08-05T12:36:51.950Z,3.67
2022-08-05T12:39:20.494Z,2.53
2022-08-05T12:41:48.807Z,2.03
2022-08-05T12:44:28.719Z,2.83
2022-08-05T12:47:04.000Z,1.67
2022-08-05T12:50:03.970Z,2.00
2022-08-05T12:52:41.881Z,1.20
2022-08-05T12:55:23.511Z,2.90
2022-08-05T12:58:39.847Z,5.50
2022-08-05T13:02:04.442Z,3.90
2022-08-05T13:03:41.460Z,2.37
2022-08-05T13:06:14.564Z,1.47
2022-08-05T13:08:50.675Z,3.63
2022-08-05T13:12:00.019Z,1.90
2022-08-05T13:14:25.113Z,1.43
2022-08-05T13:17:10.185Z,4.00
2022-08-05T13:19:51.631Z,2.27
2022-08-05T13:22:29.865Z,1.33
2022-08-05T13:25:05.045Z,2.67
2022-08-05T13:27:37.982Z,1.20
2022-08-05T13:30:35.221Z,2.00
2022-08-05T13:33:00.883Z,3.80
2022-08-05T13:35:47.286Z,2.93
2022-08-05T13:38:31.329Z,1.40
2022-08-05T13:41:04.817Z,1.83
2022-08-05T13:43:44.247Z,1.57
2022-08-05T13:46:37.633Z,1.13
2022-08-05T13:49:11.836Z,2.43
2022-08-05T13:51:46.603Z,1.37
2022-08-05T13:54:16.468Z,1.30
2022-08-05T13:56:51.589Z,1.63
2022-08-05T13:59:25.083Z,1.37
2022-08-05T14:01:56.481Z,1.20
2022-08-05T14:04:49.500Z,1.83
2022-08-05T14:08:01.223Z,1.30
2022-08-05T14:10:19.286Z,1.30
2022-08-05T14:12:57.071Z,1.97
2022-08-05T14:16:05.879Z,1.20
2022-08-05T14:18:18.557Z,1.43
2022-08-05T14:20:54.508Z,1.40
2022-08-05T14:23:26.585Z,2.03
2022-08-05T14:25:58.122Z,2.00
2022-08-05T14:28:28.775Z,3.17
2022-08-05T14:31:17.380Z,3.00
2022-08-05T14:34:00.856Z,1.43
2022-08-05T14:36:29.659Z,1.63
2022-08-05T14:38:59.911Z,1.40
2022-08-05T14:41:30.987Z,1.50
2022-08-05T14:44:09.822Z,3.00
2022-08-05T14:46:47.934Z,2.33
2022-08-05T14:49:16.830Z,2.40
2022-08-05T14:51:44.899Z,4.53
2022-08-05T14:54:29.709Z,1.83
2022-08-05T14:56:59.048Z,1.53
2022-08-05T14:59:29.786Z,1.93
2022-08-05T15:02:14.968Z,1.40
2022-08-05T15:04:45.035Z,1.97
2022-08-05T15:08:13.201Z,3.33
2022-08-05T15:10:09.769Z,2.60
2022-08-05T15:12:59.756Z,2.40
2022-08-05T15:15:54.589Z,2.30
2022-08-05T15:18:14.794Z,4.30
2022-08-05T15:20:46.040Z,2.77
2022-08-05T15:23:15.634Z,1.43
2022-08-05T15:25:52.812Z,2.73
2022-08-05T15:28:27.676Z,2.03
2022-08-05T15:30:56.636Z,1.93
2022-08-05T15:34:05.324Z,2.13
2022-08-05T15:36:17.437Z,2.03
2022-08-05T15:40:41.597Z,1.40
2022-08-05T15:41:55.625Z,2.80
2022-08-05T15:44:27.533Z,2.57
2022-08-05T15:46:56.377Z,4.57
2022-08-05T15:49:53.411Z,3.53
2022-08-05T15:52:51.618Z,4.37
2022-08-05T15:55:01.542Z,1.30
2022-08-05T15:57:32.999Z,3.17
2022-08-05T16:00:05.315Z,1.80
2022-08-05T16:02:33.978Z,1.30
2022-08-05T16:05:02.573Z,1.80
2022-08-05T16:07:33.897Z,1.30
2022-08-05T16:10:02.026Z,1.90
2022-08-05T16:12:31.892Z,3.47
2022-08-05T16:15:00.518Z,1.37
2022-08-05T16:17:29.047Z,3.80
2022-08-05T16:20:05.692Z,1.13
2022-08-05T16:22:40.208Z,8.23
2022-08-05T16:25:10.501Z,1.87
2022-08-05T16:28:00.058Z,2.43
2022-08-05T16:30:30.881Z,3.43
2022-08-05T16:33:00.563Z,1.60
2022-08-05T16:35:33.491Z,1.60
2022-08-05T16:38:24.752Z,2.97
2022-08-05T16:40:55.742Z,2.43
2022-08-05T16:43:31.609Z,1.40
2022-08-05T16:46:03.549Z,5.60
2022-08-05T16:48:37.620Z,2.17
2022-08-05T16:51:09.029Z,2.47
2022-08-05T16:54:05.302Z,4.00
2022-08-05T16:56:29.243Z,2.03
2022-08-05T16:59:01.889Z,1.40
2022-08-05T17:01:53.909Z,1.73
2022-08-05T17:04:26.136Z,1.70
2022-08-05T17:06:55.595Z,2.83
2022-08-05T17:09:25.194Z,1.73
2022-08-05T17:11:59.209Z,4.83
2022-08-05T17:14:37.008Z,3.83
2022-08-05T17:17:09.455Z,2.23
2022-08-05T17:19:45.426Z,1.77
2022-08-05T17:22:24.460Z,2.43
2022-08-05T17:24:57.412Z,3.13
2022-08-05T17:27:27.367Z,3.40
2022-08-05T17:30:07.054Z,3.40
2022-08-05T17:32:42.065Z,2.80
2022-08-05T17:35:12.290Z,1.60
2022-08-05T17:37:45.668Z,2.43
2022-08-05T17:40:18.074Z,2.23
2022-08-05T17:42:53.210Z,1.80
2022-08-05T17:45:29.527Z,2.43
2022-08-05T17:48:07.961Z,2.30
2022-08-05T17:50:36.353Z,2.23
2022-08-05T17:53:05.489Z,3.13
2022-08-05T17:55:39.687Z,1.83
2022-08-05T17:58:12.902Z,3.37
2022-08-05T18:00:47.866Z,2.47
2022-08-05T18:06:12.075Z,4.53
2022-08-05T18:08:44.481Z,2.33
2022-08-05T18:11:23.737Z,5.53
2022-08-05T18:13:54.648Z,4.17
2022-08-05T18:16:25.046Z,3.33
2022-08-05T18:18:53.091Z,2.80
2022-08-05T18:21:26.087Z,5.13
2022-08-05T18:23:56.591Z,5.43
2022-08-05T18:26:27.494Z,5.67
2022-08-05T18:28:58.214Z,3.93
2022-08-05T18:31:35.367Z,4.70
2022-08-05T18:34:05.953Z,2.83
2022-08-05T18:36:36.030Z,2.73
2022-08-05T18:39:09.710Z,4.67
2022-08-05T18:41:56.032Z,2.90
2022-08-05T18:44:34.931Z,7.07
2022-08-05T18:47:05.579Z,4.13
2022-08-05T18:49:57.959Z,3.60
2022-08-05T18:52:36.974Z,2.33
2022-08-05T18:55:10.639Z,3.73
2022-08-05T18:57:50.119Z,1.50
2022-08-05T19:00:29.489Z,1.43
2022-08-05T19:03:03.766Z,1.77
2022-08-05T19:06:12.092Z,4.20
2022-08-05T19:08:30.852Z,2.47
2022-08-05T19:11:14.822Z,2.80
2022-08-05T19:13:47.778Z,2.47
2022-08-05T19:16:24.350Z,5.17
2022-08-05T19:18:58.687Z,6.17
2022-08-05T19:21:34.444Z,4.33
2022-08-05T19:24:08.545Z,4.57
2022-08-05T19:26:54.306Z,3.10
2022-08-05T19:29:24.291Z,2.40
2022-08-05T19:32:04.502Z,1.60
2022-08-05T19:34:34.279Z,5.13
2022-08-05T19:37:02.556Z,4.73
2022-08-05T19:39:32.051Z,2.70
2022-08-05T19:42:15.324Z,2.40
2022-08-05T19:44:45.022Z,3.07
2022-08-05T19:47:15.351Z,5.80
2022-08-05T19:49:48.021Z,2.27
2022-08-05T19:52:40.276Z,2.37
2022-08-05T19:55:07.087Z,3.70
2022-08-05T19:58:10.378Z,2.50
2022-08-05T20:00:42.056Z,3.20
2022-08-05T20:03:11.095Z,3.20
2022-08-05T20:05:50.177Z,4.63
2022-08-05T20:08:19.020Z,5.63
2022-08-05T20:10:49.562Z,2.67
2022-08-05T20:13:30.107Z,6.23
2022-08-05T20:16:07.321Z,3.70
2022-08-05T20:18:36.231Z,1.90
2022-08-05T20:21:07.160Z,4.57
2022-08-05T20:23:39.269Z,2.97
2022-08-05T20:26:18.861Z,4.20
2022-08-05T20:28:48.834Z,2.70
2022-08-05T20:31:17.083Z,2.70
2022-08-05T20:33:45.574Z,4.93
2022-08-05T20:36:18.001Z,3.70
2022-08-05T20:38:54.127Z,2.83
2022-08-05T20:41:44.453Z,3.13
2022-08-05T20:44:18.926Z,5.70
2022-08-05T20:46:57.956Z,3.20
2022-08-05T20:49:26.452Z,10.77
2022-08-05T20:51:57.451Z,15.33
2022-08-05T20:54:55.266Z,8.93
2022-08-05T20:57:24.657Z,11.77
2022-08-05T21:00:19.813Z,8.27
2022-08-05T21:02:54.487Z,5.33
2022-08-05T21:05:25.366Z,5.13
2022-08-05T21:08:08.012Z,8.23
2022-08-05T21:10:36.642Z,5.90
2022-08-05T21:13:11.329Z,4.40
2022-08-05T21:15:44.416Z,6.40
2022-08-05T21:18:15.885Z,4.23
2022-08-05T21:20:43.904Z,9.97
2022-08-05T21:23:15.962Z,8.13
2022-08-05T21:25:44.751Z,8.20
2022-08-05T21:28:13.042Z,7.57
2022-08-05T21:30:46.847Z,5.73
2022-08-05T21:33:22.484Z,6.63
2022-08-05T21:35:56.071Z,8.53
2022-08-05T21:38:29.334Z,5.27
2022-08-05T21:40:58.094Z,2.97
2022-08-05T21:43:26.176Z,3.70
2022-08-05T21:46:01.862Z,6.10
2022-08-05T21:48:32.186Z,6.97
2022-08-05T21:51:01.630Z,6.10
2022-08-05T21:53:31.055Z,3.87
2022-08-05T21:56:09.775Z,4.07
2022-08-05T21:58:57.090Z,5.63
2022-08-05T22:01:26.186Z,5.43
2022-08-05T22:03:54.758Z,2.90
2022-08-05T22:06:35.348Z,6.03
2022-08-05T22:09:13.171Z,8.23
2022-08-05T22:11:47.102Z,8.90
2022-08-05T22:14:33.578Z,14.27
2022-08-05T22:17:04.995Z,20.23
2022-08-05T22:20:00.190Z,25.07
2022-08-05T22:22:28.211Z,20.17
2022-08-05T22:25:27.251Z,19.97
2022-08-05T22:28:08.220Z,23.57
2022-08-05T22:30:44.077Z,16.10
2022-08-05T22:33:55.613Z,17.67
2022-08-05T22:36:14.790Z,18.13
2022-08-05T22:38:44.001Z,15.47
2022-08-05T22:41:26.291Z,14.27
2022-08-05T22:44:08.371Z,14.27
2022-08-05T22:46:39.505Z,11.70
2022-08-05T22:49:12.443Z,13.40
2022-08-05T22:52:04.345Z,8.07
2022-08-05T22:54:36.439Z,7.23
2022-08-05T22:57:06.558Z,8.03
2022-08-05T22:59:44.140Z,10.07
2022-08-05T23:02:17.498Z,6.23
2022-08-05T23:04:51.591Z,5.67
2022-08-05T23:07:22.069Z,5.37
2022-08-05T23:09:53.262Z,8.27
2022-08-05T23:12:32.835Z,5.00
2022-08-05T23:15:03.525Z,6.80
2022-08-05T23:17:37.247Z,8.03
2022-08-05T23:20:16.760Z,7.67
2022-08-05T23:22:47.467Z,11.23
2022-08-05T23:25:54.830Z,5.53
2022-08-05T23:28:07.856Z,7.47
2022-08-05T23:30:40.428Z,6.73
2022-08-05T23:33:21.905Z,7.03
2022-08-05T23:35:56.034Z,6.37
2022-08-05T23:38:26.135Z,6.03
2022-08-05T23:40:55.040Z,5.93
2022-08-05T23:44:02.792Z,7.17
2022-08-05T23:46:21.250Z,10.73
2022-08-05T23:49:00.325Z,6.83
2022-08-05T23:51:54.094Z,5.00
2022-08-05T23:54:25.736Z,6.57
2022-08-05T23:56:55.478Z,6.10
2022-08-05T23:59:37.789Z,4.50
